LNKFK ENBR-ENHD
Flight info
| Callsign | LNKFK |
|---|---|
| Flight time | 0h 31m |
| Altitude | 7000 |
| Route | BEGOD |
| Aircraft | DA42/L-SBDGRY/S |
Departure
| Time | 2026-04-26 09:52 |
|---|---|
| Airport | Bergen Airport, Flesland (ENBR) |
Arrival
| Time | 2026-04-26 10:23 |
|---|---|
| Airport | Haugesund Airport, Karmøy (ENHD) |
| Time | Latitude | Longitude | Altitude | Speed | Heading |
|---|---|---|---|---|---|
| 2026-04-26 09:36 | 60.29582 | 5.22577 | 146 ft | 0 kts | 214° |
| 2026-04-26 09:40 | 60.29560 | 5.22522 | 146 ft | 7 kts | 273° |
| 2026-04-26 09:41 | 60.29560 | 5.22511 | 146 ft | 0 kts | 272° |
| 2026-04-26 09:41 | 60.29563 | 5.22426 | 143 ft | 8 kts | 274° |
| 2026-04-26 09:41 | 60.29563 | 5.22413 | 143 ft | 0 kts | 269° |
| 2026-04-26 09:41 | 60.29561 | 5.22331 | 145 ft | 10 kts | 228° |
| 2026-04-26 09:42 | 60.29558 | 5.22307 | 146 ft | 0 kts | 0° |
| 2026-04-26 09:42 | 60.29559 | 5.22308 | 146 ft | 0 kts | 5° |
| 2026-04-26 09:44 | 60.29561 | 5.22308 | 146 ft | 4 kts | 8° |
| 2026-04-26 09:44 | 60.29575 | 5.22357 | 145 ft | 18 kts | 147° |
| 2026-04-26 09:44 | 60.29552 | 5.22224 | 147 ft | 4 kts | 255° |
| 2026-04-26 09:45 | 60.29486 | 5.22213 | 151 ft | 23 kts | 171° |
| 2026-04-26 09:45 | 60.29386 | 5.22134 | 153 ft | 19 kts | 202° |
| 2026-04-26 09:45 | 60.29198 | 5.22187 | 157 ft | 38 kts | 167° |
| 2026-04-26 09:45 | 60.28988 | 5.22257 | 156 ft | 18 kts | 169° |
| 2026-04-26 09:46 | 60.28926 | 5.22229 | 155 ft | 3 kts | 273° |
| 2026-04-26 09:46 | 60.28928 | 5.22188 | 154 ft | 5 kts | 276° |
| 2026-04-26 09:46 | 60.28937 | 5.22196 | 154 ft | 10 kts | 149° |
| 2026-04-26 09:46 | 60.28927 | 5.22180 | 154 ft | 3 kts | 32° |
| 2026-04-26 09:47 | 60.28923 | 5.22199 | 154 ft | 0 kts | 227° |
| 2026-04-26 09:47 | 60.28922 | 5.22191 | 154 ft | 0 kts | 248° |
| 2026-04-26 09:47 | 60.28922 | 5.22184 | 154 ft | 0 kts | 292° |
| 2026-04-26 09:47 | 60.28923 | 5.22194 | 154 ft | 7 kts | 200° |
| 2026-04-26 09:48 | 60.28921 | 5.22184 | 154 ft | 0 kts | 259° |
| 2026-04-26 09:48 | 60.28922 | 5.22192 | 154 ft | 10 kts | 204° |
| 2026-04-26 09:48 | 60.28916 | 5.22141 | 153 ft | 0 kts | 256° |
| 2026-04-26 09:49 | 60.28914 | 5.22130 | 153 ft | 0 kts | 256° |
| 2026-04-26 09:49 | 60.28905 | 5.22022 | 155 ft | 14 kts | 257° |
| 2026-04-26 09:50 | 60.28919 | 5.21956 | 157 ft | 0 kts | 352° |
| 2026-04-26 09:51 | 60.28991 | 5.21932 | 156 ft | 37 kts | 353° |
| 2026-04-26 09:51 | 60.29420 | 5.21790 | 155 ft | 83 kts | 349° |
| 2026-04-26 09:52 | 60.29992 | 5.21559 | 393 ft | 85 kts | 349° |
| 2026-04-26 09:52 | 60.31302 | 5.21119 | 925 ft | 105 kts | 352° |
| 2026-04-26 09:52 | 60.32050 | 5.20899 | 1207 ft | 111 kts | 351° |
| 2026-04-26 09:53 | 60.32557 | 5.20733 | 1389 ft | 112 kts | 350° |
| 2026-04-26 09:53 | 60.33340 | 5.20456 | 1664 ft | 118 kts | 350° |
| 2026-04-26 09:53 | 60.34191 | 5.20189 | 1989 ft | 128 kts | 351° |
| 2026-04-26 09:53 | 60.35050 | 5.19902 | 2288 ft | 122 kts | 351° |
| 2026-04-26 09:54 | 60.35867 | 5.19622 | 2627 ft | 116 kts | 351° |
| 2026-04-26 09:54 | 60.36645 | 5.19360 | 2982 ft | 113 kts | 351° |
| 2026-04-26 09:54 | 60.37439 | 5.19098 | 3335 ft | 119 kts | 354° |
| 2026-04-26 09:54 | 60.38247 | 5.18814 | 3666 ft | 116 kts | 345° |
| 2026-04-26 09:55 | 60.38862 | 5.17819 | 4011 ft | 115 kts | 307° |
| 2026-04-26 09:55 | 60.39080 | 5.16277 | 4345 ft | 117 kts | 273° |
| 2026-04-26 09:55 | 60.38805 | 5.14738 | 4703 ft | 122 kts | 237° |
| 2026-04-26 09:55 | 60.38081 | 5.13807 | 5044 ft | 129 kts | 196° |
| 2026-04-26 09:56 | 60.37172 | 5.13733 | 5385 ft | 132 kts | 181° |
| 2026-04-26 09:56 | 60.36264 | 5.13766 | 5718 ft | 129 kts | 182° |
| 2026-04-26 09:56 | 60.35372 | 5.13823 | 6055 ft | 127 kts | 183° |
| 2026-04-26 09:56 | 60.34495 | 5.13838 | 6404 ft | 126 kts | 184° |
| 2026-04-26 09:57 | 60.33607 | 5.13861 | 6748 ft | 128 kts | 185° |
| 2026-04-26 09:57 | 60.32708 | 5.13887 | 6980 ft | 135 kts | 185° |
| 2026-04-26 09:57 | 60.31692 | 5.13912 | 6993 ft | 156 kts | 184° |
| 2026-04-26 09:57 | 60.30571 | 5.13947 | 7074 ft | 164 kts | 183° |
| 2026-04-26 09:58 | 60.29415 | 5.13989 | 7199 ft | 168 kts | 183° |
| 2026-04-26 09:58 | 60.28241 | 5.14028 | 7309 ft | 171 kts | 183° |
| 2026-04-26 09:58 | 60.27023 | 5.14064 | 7317 ft | 179 kts | 183° |
| 2026-04-26 09:58 | 60.25765 | 5.14101 | 7316 ft | 183 kts | 183° |
| 2026-04-26 09:59 | 60.24484 | 5.14138 | 7318 ft | 185 kts | 183° |
| 2026-04-26 09:59 | 60.23189 | 5.14179 | 7318 ft | 187 kts | 183° |
| 2026-04-26 09:59 | 60.21885 | 5.14214 | 7315 ft | 188 kts | 183° |
| 2026-04-26 09:59 | 60.20577 | 5.14254 | 7316 ft | 188 kts | 182° |
| 2026-04-26 10:00 | 60.19265 | 5.14287 | 7313 ft | 189 kts | 182° |
| 2026-04-26 10:00 | 60.17946 | 5.14328 | 7319 ft | 190 kts | 183° |
| 2026-04-26 10:00 | 60.16625 | 5.14374 | 7319 ft | 190 kts | 182° |
| 2026-04-26 10:00 | 60.15306 | 5.14414 | 7315 ft | 189 kts | 183° |
| 2026-04-26 10:01 | 60.13983 | 5.14451 | 7323 ft | 191 kts | 183° |
| 2026-04-26 10:01 | 60.12658 | 5.14490 | 7317 ft | 190 kts | 183° |
| 2026-04-26 10:01 | 60.11339 | 5.14523 | 7320 ft | 190 kts | 183° |
| 2026-04-26 10:01 | 60.10015 | 5.14566 | 7320 ft | 191 kts | 183° |
| 2026-04-26 10:02 | 60.08687 | 5.14605 | 7315 ft | 190 kts | 183° |
| 2026-04-26 10:02 | 60.07367 | 5.14639 | 7316 ft | 189 kts | 183° |
| 2026-04-26 10:02 | 60.06054 | 5.14681 | 7320 ft | 188 kts | 183° |
| 2026-04-26 10:02 | 60.04745 | 5.14720 | 7320 ft | 188 kts | 183° |
| 2026-04-26 10:03 | 60.03434 | 5.14757 | 7323 ft | 188 kts | 183° |
| 2026-04-26 10:03 | 60.02125 | 5.14795 | 7323 ft | 188 kts | 182° |
| 2026-04-26 10:03 | 60.00817 | 5.14834 | 7322 ft | 188 kts | 183° |
| 2026-04-26 10:03 | 59.99503 | 5.14859 | 7327 ft | 190 kts | 182° |
| 2026-04-26 10:04 | 59.98176 | 5.14911 | 7322 ft | 191 kts | 182° |
| 2026-04-26 10:04 | 59.96841 | 5.14955 | 7327 ft | 193 kts | 183° |
| 2026-04-26 10:04 | 59.95507 | 5.14992 | 7325 ft | 191 kts | 183° |
| 2026-04-26 10:04 | 59.94183 | 5.15025 | 7328 ft | 190 kts | 182° |
| 2026-04-26 10:05 | 59.92865 | 5.15064 | 7325 ft | 189 kts | 182° |
| 2026-04-26 10:05 | 59.91546 | 5.15111 | 7326 ft | 191 kts | 182° |
| 2026-04-26 10:05 | 59.90220 | 5.15146 | 7341 ft | 192 kts | 183° |
| 2026-04-26 10:05 | 59.88882 | 5.15167 | 7330 ft | 192 kts | 182° |
| 2026-04-26 10:06 | 59.87545 | 5.15216 | 7329 ft | 192 kts | 183° |
| 2026-04-26 10:06 | 59.86209 | 5.15252 | 7332 ft | 192 kts | 182° |
| 2026-04-26 10:06 | 59.84877 | 5.15290 | 7327 ft | 191 kts | 182° |
| 2026-04-26 10:06 | 59.83539 | 5.15348 | 7326 ft | 193 kts | 183° |
| 2026-04-26 10:07 | 59.82198 | 5.15367 | 7330 ft | 193 kts | 183° |
| 2026-04-26 10:07 | 59.80852 | 5.15404 | 7326 ft | 194 kts | 182° |
| 2026-04-26 10:07 | 59.79502 | 5.15452 | 7321 ft | 194 kts | 181° |
| 2026-04-26 10:07 | 59.78156 | 5.15489 | 7330 ft | 193 kts | 183° |
| 2026-04-26 10:08 | 59.76814 | 5.15518 | 7325 ft | 193 kts | 182° |
| 2026-04-26 10:08 | 59.75496 | 5.15559 | 7323 ft | 191 kts | 182° |
| 2026-04-26 10:08 | 59.74166 | 5.15601 | 7327 ft | 193 kts | 182° |
| 2026-04-26 10:08 | 59.72825 | 5.15635 | 7322 ft | 192 kts | 182° |
| 2026-04-26 10:09 | 59.71494 | 5.15674 | 7322 ft | 191 kts | 182° |
| 2026-04-26 10:09 | 59.70169 | 5.15713 | 7322 ft | 190 kts | 182° |
| 2026-04-26 10:09 | 59.68848 | 5.15752 | 7327 ft | 190 kts | 182° |
| 2026-04-26 10:09 | 59.67520 | 5.15787 | 7333 ft | 193 kts | 182° |
| 2026-04-26 10:10 | 59.66166 | 5.15830 | 7332 ft | 195 kts | 182° |
| 2026-04-26 10:10 | 59.64804 | 5.15870 | 7326 ft | 197 kts | 182° |
| 2026-04-26 10:10 | 59.63467 | 5.16394 | 7332 ft | 198 kts | 159° |
| 2026-04-26 10:10 | 59.62262 | 5.17710 | 7332 ft | 198 kts | 149° |
| 2026-04-26 10:11 | 59.61085 | 5.19128 | 7332 ft | 198 kts | 149° |
| 2026-04-26 10:11 | 59.59909 | 5.20555 | 7330 ft | 198 kts | 148° |
| 2026-04-26 10:11 | 59.58736 | 5.21971 | 7339 ft | 198 kts | 149° |
| 2026-04-26 10:11 | 59.57558 | 5.23383 | 7322 ft | 197 kts | 149° |
| 2026-04-26 10:12 | 59.56394 | 5.24783 | 7324 ft | 195 kts | 149° |
| 2026-04-26 10:12 | 59.55235 | 5.26176 | 7328 ft | 195 kts | 149° |
| 2026-04-26 10:12 | 59.54072 | 5.27576 | 7327 ft | 196 kts | 149° |
| 2026-04-26 10:12 | 59.52905 | 5.28970 | 7317 ft | 196 kts | 149° |
| 2026-04-26 10:13 | 59.51741 | 5.30360 | 7329 ft | 196 kts | 149° |
| 2026-04-26 10:13 | 59.50576 | 5.31754 | 7325 ft | 196 kts | 149° |
| 2026-04-26 10:13 | 59.49410 | 5.33149 | 7328 ft | 196 kts | 149° |
| 2026-04-26 10:13 | 59.48245 | 5.34546 | 7333 ft | 197 kts | 149° |
| 2026-04-26 10:14 | 59.47076 | 5.35940 | 7332 ft | 196 kts | 149° |
| 2026-04-26 10:14 | 59.45906 | 5.37337 | 7330 ft | 197 kts | 149° |
| 2026-04-26 10:14 | 59.44733 | 5.38723 | 7325 ft | 197 kts | 149° |
| 2026-04-26 10:14 | 59.43560 | 5.40125 | 7340 ft | 198 kts | 149° |
| 2026-04-26 10:15 | 59.42378 | 5.41540 | 7248 ft | 201 kts | 149° |
| 2026-04-26 10:15 | 59.41153 | 5.42989 | 6977 ft | 210 kts | 149° |
| 2026-04-26 10:15 | 59.39874 | 5.44505 | 6650 ft | 219 kts | 148° |
| 2026-04-26 10:15 | 59.38564 | 5.46058 | 6295 ft | 219 kts | 148° |
| 2026-04-26 10:16 | 59.37268 | 5.47600 | 6001 ft | 216 kts | 148° |
| 2026-04-26 10:16 | 59.35984 | 5.49116 | 5723 ft | 215 kts | 148° |
| 2026-04-26 10:16 | 59.34717 | 5.50612 | 5462 ft | 208 kts | 147° |
| 2026-04-26 10:16 | 59.33521 | 5.52030 | 5259 ft | 194 kts | 147° |
| 2026-04-26 10:17 | 59.32414 | 5.53341 | 5132 ft | 178 kts | 148° |
| 2026-04-26 10:17 | 59.31337 | 5.54603 | 4705 ft | 184 kts | 150° |
| 2026-04-26 10:17 | 59.30082 | 5.55180 | 4326 ft | 185 kts | 179° |
| 2026-04-26 10:17 | 59.28853 | 5.54721 | 4086 ft | 180 kts | 205° |
| 2026-04-26 10:18 | 59.27833 | 5.53378 | 3835 ft | 174 kts | 230° |
| 2026-04-26 10:18 | 59.27184 | 5.51436 | 3588 ft | 169 kts | 252° |
| 2026-04-26 10:18 | 59.26962 | 5.49253 | 3344 ft | 158 kts | 275° |
| 2026-04-26 10:18 | 59.27079 | 5.47182 | 3127 ft | 153 kts | 283° |
| 2026-04-26 10:19 | 59.27214 | 5.45120 | 2907 ft | 151 kts | 282° |
| 2026-04-26 10:19 | 59.27342 | 5.43106 | 2694 ft | 148 kts | 282° |
| 2026-04-26 10:19 | 59.27474 | 5.41131 | 2527 ft | 147 kts | 284° |
| 2026-04-26 10:19 | 59.27609 | 5.39103 | 2285 ft | 149 kts | 284° |
| 2026-04-26 10:20 | 59.27749 | 5.37112 | 2048 ft | 145 kts | 282° |
| 2026-04-26 10:20 | 59.27834 | 5.35813 | 1932 ft | 145 kts | 282° |
| 2026-04-26 10:20 | 59.28313 | 5.33373 | 1622 ft | 140 kts | 309° |
| 2026-04-26 10:20 | 59.28949 | 5.32029 | 1433 ft | 134 kts | 317° |
| 2026-04-26 10:21 | 59.29592 | 5.30738 | 1233 ft | 133 kts | 317° |
| 2026-04-26 10:21 | 59.30228 | 5.29465 | 1042 ft | 131 kts | 317° |
| 2026-04-26 10:21 | 59.30858 | 5.28203 | 880 ft | 117 kts | 317° |
| 2026-04-26 10:21 | 59.31298 | 5.27308 | 881 ft | 77 kts | 317° |
| 2026-04-26 10:22 | 59.31632 | 5.26627 | 887 ft | 65 kts | 319° |
| 2026-04-26 10:22 | 59.31926 | 5.26022 | 847 ft | 66 kts | 317° |
| 2026-04-26 10:22 | 59.32253 | 5.25329 | 819 ft | 77 kts | 320° |
| 2026-04-26 10:22 | 59.32651 | 5.24597 | 671 ft | 77 kts | 319° |
| 2026-04-26 10:23 | 59.33027 | 5.23855 | 463 ft | 75 kts | 319° |
| 2026-04-26 10:23 | 59.33386 | 5.23137 | 257 ft | 73 kts | 318° |
| 2026-04-26 10:23 | 59.33725 | 5.22442 | 122 ft | 69 kts | 319° |
| 2026-04-26 10:23 | 59.34006 | 5.21886 | 81 ft | 40 kts | 314° |
| 2026-04-26 10:24 | 59.34111 | 5.21675 | 82 ft | 16 kts | 311° |
| 2026-04-26 10:24 | 59.34202 | 5.21496 | 82 ft | 15 kts | 319° |
| 2026-04-26 10:24 | 59.34294 | 5.21514 | 81 ft | 14 kts | 49° |
| 2026-04-26 10:24 | 59.34360 | 5.21586 | 80 ft | 10 kts | 326° |
| 2026-04-26 10:25 | 59.34409 | 5.21489 | 80 ft | 11 kts | 316° |
| 2026-04-26 10:25 | 59.34460 | 5.21386 | 79 ft | 7 kts | 292° |
| 2026-04-26 10:25 | 59.34467 | 5.21339 | 72 ft | 0 kts | 289° |